Time;durP1;ratioP1;P1;durP2;ratioP2;P2;SDS_P1;SDS_P2;PMS_P1;PMS_P2;Temp;Humidity;BMP_temperature;BMP_pressure;BME280_temperature;BME280_humidity;BME280_pressure;Samples;Min_cycle;Max_cycle;Signal;HPM_P1;HPM_P2
2023/03/01 00:01:03;;;;;;;29.03;25.10;;;-0.40;99.90;;;;;;4917996;29;20953;-71
2023/03/01 00:03:31;;;;;;;28.13;25.00;;;-0.40;99.90;;;;;;4917444;29;20490;-71
2023/03/01 00:06:01;;;;;;;27.03;23.93;;;-0.40;99.90;;;;;;4917457;29;20491;-71
2023/03/01 00:08:30;;;;;;;27.63;24.30;;;-0.40;99.90;;;;;;4917641;29;20448;-71
2023/03/01 00:11:03;;;;;;;28.73;24.60;;;-0.40;99.90;;;;;;4917763;29;20472;-71
2023/03/01 00:13:32;;;;;;;28.67;25.67;;;-0.50;99.90;;;;;;4916018;29;20472;-71
2023/03/01 00:16:02;;;;;;;30.10;25.77;;;-0.50;99.90;;;;;;4916002;29;20464;-71
2023/03/01 00:18:30;;;;;;;28.87;24.90;;;-0.50;99.90;;;;;;4917218;29;20822;-72
2023/03/01 00:20:59;;;;;;;27.63;24.63;;;-0.50;99.90;;;;;;4916263;29;20468;-71
2023/03/01 00:23:28;;;;;;;29.00;25.87;;;-0.50;99.90;;;;;;4917129;29;20519;-71
2023/03/01 00:25:56;;;;;;;29.90;24.63;;;-0.60;99.90;;;;;;4917453;29;20445;-71
2023/03/01 00:28:27;;;;;;;30.87;25.00;;;-0.60;99.90;;;;;;4916149;29;20444;-71
2023/03/01 00:30:55;;;;;;;28.70;25.70;;;-0.60;99.90;;;;;;4917374;29;20468;-71
2023/03/01 00:33:23;;;;;;;29.10;26.17;;;-0.60;99.90;;;;;;4917010;29;20456;-71
2023/03/01 00:35:51;;;;;;;30.67;26.83;;;-0.60;99.90;;;;;;4915850;29;20461;-70
2023/03/01 00:38:19;;;;;;;26.33;23.53;;;-0.60;99.90;;;;;;4915816;29;20449;-71
2023/03/01 00:40:48;;;;;;;29.30;25.43;;;-0.70;99.90;;;;;;4915847;29;20445;-71
2023/03/01 00:43:16;;;;;;;25.20;21.60;;;-0.70;99.90;;;;;;4915744;29;20476;-71
2023/03/01 00:45:44;;;;;;;24.33;21.93;;;-0.70;99.90;;;;;;4919791;29;20877;-72
2023/03/01 00:48:13;;;;;;;26.47;21.93;;;-0.70;99.90;;;;;;4919703;29;20491;-71
2023/03/01 00:50:41;;;;;;;24.70;20.27;;;-0.80;99.90;;;;;;4919553;29;20480;-71
2023/03/01 00:53:09;;;;;;;21.30;19.20;;;-0.80;99.90;;;;;;4920734;29;20459;-71
2023/03/01 00:55:37;;;;;;;21.30;19.20;;;-0.80;99.90;;;;;;4920762;29;20459;-71
2023/03/01 00:58:08;;;;;;;21.43;19.13;;;-0.80;99.90;;;;;;4919747;29;21024;-71
2023/03/01 01:00:36;;;;;;;22.37;19.97;;;-0.80;99.90;;;;;;4919443;29;20456;-71
2023/03/01 01:03:04;;;;;;;17.47;15.10;;;-0.90;99.90;;;;;;4919353;29;20555;-71
2023/03/01 01:05:35;;;;;;;20.80;18.60;;;-0.90;99.90;;;;;;4919390;29;20444;-71
2023/03/01 01:08:03;;;;;;;21.67;19.40;;;-0.90;99.90;;;;;;4919400;29;20449;-71
2023/03/01 01:10:31;;;;;;;22.70;19.90;;;-0.90;99.90;;;;;;4920679;29;20833;-71
2023/03/01 01:12:59;;;;;;;21.47;19.40;;;-0.90;99.90;;;;;;4920716;29;20464;-71
2023/03/01 01:15:29;;;;;;;21.13;18.93;;;-0.90;99.90;;;;;;4920482;29;20463;-71
2023/03/01 01:17:57;;;;;;;21.90;18.10;;;-0.90;99.90;;;;;;4919238;29;20516;-71
2023/03/01 01:20:25;;;;;;;21.23;18.77;;;-0.90;99.90;;;;;;4919479;29;20452;-71
2023/03/01 01:22:53;;;;;;;21.20;18.90;;;-1.00;99.90;;;;;;4921272;29;20464;-71
2023/03/01 01:25:21;;;;;;;21.33;19.23;;;-1.00;99.90;;;;;;4919846;29;20869;-72
2023/03/01 01:27:49;;;;;;;21.03;18.90;;;-1.00;99.90;;;;;;4918965;29;20444;-71
2023/03/01 01:30:18;;;;;;;21.53;17.80;;;-1.00;99.90;;;;;;4918828;29;20476;-71
2023/03/01 01:32:47;;;;;;;20.17;17.20;;;-1.00;99.90;;;;;;4920112;29;20982;-71
2023/03/01 01:35:15;;;;;;;25.20;19.37;;;-1.00;99.90;;;;;;4919350;29;20984;-70
2023/03/01 01:37:43;;;;;;;26.53;17.53;;;-1.10;99.90;;;;;;4918789;29;20456;-70
2023/03/01 01:40:12;;;;;;;22.50;17.73;;;-1.10;99.90;;;;;;4918784;29;20449;-71
2023/03/01 01:42:40;;;;;;;24.13;17.20;;;-1.10;99.90;;;;;;4919975;29;20471;-71
2023/03/01 01:45:32;;;;;;;19.50;17.50;;;-1.10;99.90;;;;;;4919948;29;20445;-70
2023/03/01 01:48:05;;;;;;;16.37;14.80;;;-1.10;99.90;;;;;;4918642;29;20524;-70
2023/03/01 01:50:38;;;;;;;20.67;17.83;;;-1.10;99.90;;;;;;4918573;29;20475;-70
2023/03/01 01:53:12;;;;;;;20.70;17.37;;;-1.20;99.90;;;;;;4918582;29;20471;-72
2023/03/01 01:55:43;;;;;;;20.10;17.60;;;-1.20;99.90;;;;;;4918550;29;20421;-71
2023/03/01 01:58:16;;;;;;;20.43;18.43;;;-1.20;99.90;;;;;;4918547;29;20452;-71
2023/03/01 02:00:45;;;;;;;19.00;15.90;;;-1.20;99.90;;;;;;4918500;29;20445;-71
2023/03/01 02:03:19;;;;;;;19.67;17.37;;;-1.20;99.90;;;;;;4918307;29;20464;-71
2023/03/01 02:05:52;;;;;;;18.87;16.97;;;-1.30;99.90;;;;;;4919915;29;20428;-72
2023/03/01 02:08:26;;;;;;;20.03;17.63;;;-1.20;99.90;;;;;;4918312;29;20479;-71
2023/03/01 02:10:56;;;;;;;19.43;17.43;;;-1.30;99.90;;;;;;4919528;29;20471;-71
2023/03/01 02:13:25;;;;;;;18.60;16.23;;;-1.30;99.90;;;;;;4918117;29;21080;-71
2023/03/01 02:15:55;;;;;;;19.13;17.07;;;-1.30;99.90;;;;;;4918222;29;20444;-71
2023/03/01 02:18:25;;;;;;;18.07;16.17;;;-1.30;99.90;;;;;;4919329;29;20471;-71
2023/03/01 02:21:05;;;;;;;19.40;15.70;;;-1.30;99.90;;;;;;4919557;29;20918;-71
2023/03/01 02:23:34;;;;;;;18.37;15.87;;;-1.40;99.90;;;;;;4918193;29;20527;-71
2023/03/01 02:26:11;;;;;;;18.13;16.27;;;-1.40;99.90;;;;;;4917969;29;20460;-71
2023/03/01 02:28:43;;;;;;;16.67;14.80;;;-1.40;99.90;;;;;;4919181;29;20432;-71
2023/03/01 02:34:04;;;;;;;17.33;15.47;;;-1.40;99.90;;;;;;4917863;29;20989;-71
2023/03/01 02:36:37;;;;;;;18.30;16.40;;;-1.40;99.90;;;;;;4919609;29;20536;-71
2023/03/01 02:39:14;;;;;;;20.33;18.13;;;-1.40;99.90;;;;;;4917857;29;20461;-71
2023/03/01 02:41:46;;;;;;;29.80;21.10;;;-1.50;99.90;;;;;;4917607;29;20980;-71
2023/03/01 02:44:16;;;;;;;23.10;20.47;;;-1.50;99.90;;;;;;4917816;29;20447;-71
2023/03/01 02:46:46;;;;;;;22.20;18.50;;;-1.50;99.90;;;;;;4918907;29;20445;-71
2023/03/01 02:49:24;;;;;;;20.67;18.40;;;-1.50;99.90;;;;;;4917856;29;20452;-71
2023/03/01 02:52:12;;;;;;;24.33;20.07;;;-1.50;99.90;;;;;;4917405;29;20539;-71
2023/03/01 02:54:44;;;;;;;18.20;16.40;;;-1.50;99.90;;;;;;4917485;29;20452;-71
2023/03/01 02:57:15;;;;;;;19.77;15.90;;;-1.50;99.90;;;;;;4917544;29;20470;-71
2023/03/01 02:59:45;;;;;;;17.97;16.17;;;-1.60;99.90;;;;;;4917649;29;20449;-71
2023/03/01 03:02:35;;;;;;;16.40;14.73;;;-1.60;99.90;;;;;;4918070;29;20468;-71
2023/03/01 03:05:12;;;;;;;16.83;14.93;;;-1.60;99.90;;;;;;4917647;29;20983;-71
2023/03/01 03:07:43;;;;;;;17.37;15.77;;;-1.60;99.90;;;;;;4917110;29;20962;-71
2023/03/01 03:10:14;;;;;;;18.50;16.47;;;-1.60;99.90;;;;;;4917392;29;20452;-71
2023/03/01 03:12:42;;;;;;;24.40;21.77;;;-1.60;99.90;;;;;;4917300;29;20488;-71
2023/03/01 03:15:12;;;;;;;27.53;21.17;;;-1.60;99.90;;;;;;4917120;29;20978;-71
2023/03/01 03:17:43;;;;;;;22.90;20.43;;;-1.60;99.90;;;;;;4916888;29;20492;-71
2023/03/01 03:20:18;;;;;;;24.27;21.13;;;-1.60;99.90;;;;;;4917274;29;20448;-71
2023/03/01 03:22:48;;;;;;;26.03;20.50;;;-1.70;99.90;;;;;;4918392;29;20563;-71
2023/03/01 03:25:16;;;;;;;26.70;20.70;;;-1.70;99.90;;;;;;4916935;29;20474;-71
2023/03/01 03:27:46;;;;;;;24.03;21.50;;;-1.70;99.90;;;;;;4918342;29;20440;-71
2023/03/01 03:30:17;;;;;;;24.87;22.23;;;-1.70;99.90;;;;;;4916818;29;20452;-71
2023/03/01 03:32:51;;;;;;;22.00;19.60;;;-1.70;99.90;;;;;;4918083;29;21045;-71
2023/03/01 03:35:21;;;;;;;21.80;18.30;;;-1.70;99.90;;;;;;4918552;29;20483;-71
2023/03/01 03:38:05;;;;;;;20.63;18.63;;;-1.70;99.90;;;;;;4917917;29;20491;-71
2023/03/01 03:40:36;;;;;;;20.40;17.07;;;-1.70;99.90;;;;;;4917959;29;20485;-71
2023/03/01 03:43:05;;;;;;;18.37;16.23;;;-1.70;99.90;;;;;;4918292;29;20468;-71
2023/03/01 03:45:35;;;;;;;16.80;15.10;;;-1.70;99.90;;;;;;4918063;29;20535;-71
2023/03/01 03:48:07;;;;;;;17.43;15.17;;;-1.70;99.90;;;;;;4918023;29;20484;-71
2023/03/01 03:50:35;;;;;;;17.03;15.23;;;-1.70;99.90;;;;;;4917782;29;20424;-71
2023/03/01 03:53:06;;;;;;;16.33;14.70;;;-1.80;99.90;;;;;;4917508;29;21001;-71
2023/03/01 03:55:34;;;;;;;15.93;14.17;;;-1.80;99.90;;;;;;4918135;29;20927;-71
2023/03/01 03:58:06;;;;;;;17.37;14.17;;;-1.80;99.90;;;;;;4916309;29;20449;-71
2023/03/01 04:00:37;;;;;;;15.20;13.60;;;-1.80;99.90;;;;;;4917902;29;20495;-71
2023/03/01 04:03:06;;;;;;;16.10;14.00;;;-1.80;99.90;;;;;;4916268;29;20464;-71
2023/03/01 04:05:34;;;;;;;14.90;13.30;;;-1.80;99.90;;;;;;4917489;29;20966;-71
2023/03/01 04:08:03;;;;;;;15.37;13.77;;;-1.80;99.90;;;;;;4916462;29;20479;-70
2023/03/01 04:10:33;;;;;;;14.07;12.57;;;-1.80;99.90;;;;;;4916197;29;20459;-71
2023/03/01 04:13:01;;;;;;;14.87;13.37;;;-1.80;99.90;;;;;;4916078;29;21012;-70
2023/03/01 04:15:31;;;;;;;15.83;14.10;;;-1.80;99.90;;;;;;4917387;29;21013;-71
2023/03/01 04:18:01;;;;;;;15.10;13.50;;;-1.80;99.90;;;;;;4917097;29;20452;-71
2023/03/01 04:20:31;;;;;;;16.03;14.30;;;-1.90;99.90;;;;;;4916047;29;20456;-71
2023/03/01 04:23:08;;;;;;;18.47;16.17;;;-1.90;99.90;;;;;;4917546;29;20539;-71
2023/03/01 04:25:36;;;;;;;46.47;36.83;;;-1.90;99.90;;;;;;4916429;29;20448;-71
2023/03/01 04:28:04;;;;;;;26.07;21.40;;;-1.90;99.90;;;;;;4916677;29;20462;-71
2023/03/01 04:30:35;;;;;;;19.50;17.40;;;-1.90;99.90;;;;;;4917409;29;20444;-70
2023/03/01 04:33:06;;;;;;;19.60;16.03;;;-1.90;99.90;;;;;;4917510;29;20494;-71
2023/03/01 04:35:35;;;;;;;20.40;15.80;;;-1.90;99.90;;;;;;4916011;29;20448;-71
2023/03/01 04:38:03;;;;;;;15.93;14.23;;;-1.90;99.90;;;;;;4917391;29;20440;-70
2023/03/01 04:40:31;;;;;;;17.07;15.27;;;-1.90;99.90;;;;;;4917269;29;20820;-70
2023/03/01 04:42:59;;;;;;;16.40;14.70;;;-1.90;99.90;;;;;;4916104;29;20591;-71
2023/03/01 04:45:27;;;;;;;16.60;14.90;;;-2.00;99.90;;;;;;4917345;29;20441;-71
2023/03/01 04:47:57;;;;;;;16.93;15.23;;;-2.00;99.90;;;;;;4917172;29;20452;-71
2023/03/01 04:50:27;;;;;;;16.47;14.60;;;-2.00;99.90;;;;;;4915922;29;20440;-71
2023/03/01 04:52:58;;;;;;;16.63;14.97;;;-2.00;99.90;;;;;;4916910;29;21008;-70
2023/03/01 04:55:27;;;;;;;19.63;16.10;;;-2.00;99.90;;;;;;4917312;29;20460;-70
2023/03/01 04:57:56;;;;;;;15.63;13.60;;;-2.00;99.90;;;;;;4915699;29;20456;-71
2023/03/01 05:00:27;;;;;;;19.10;14.90;;;-2.00;99.90;;;;;;4915863;29;20448;-70
2023/03/01 05:02:57;;;;;;;17.83;15.93;;;-2.00;99.90;;;;;;4915803;29;20473;-71
2023/03/01 05:05:31;;;;;;;15.87;14.27;;;-2.00;99.90;;;;;;4917107;29;20511;-71
2023/03/01 05:08:01;;;;;;;17.90;15.27;;;-2.00;99.90;;;;;;4917423;29;20464;-71
2023/03/01 05:10:32;;;;;;;18.50;16.23;;;-2.10;99.90;;;;;;4917483;29;20425;-71
2023/03/01 05:13:00;;;;;;;18.30;15.80;;;-2.10;99.90;;;;;;4917187;29;21064;-71
2023/03/01 05:15:30;;;;;;;18.13;16.23;;;-2.10;99.90;;;;;;4915677;29;20492;-71
2023/03/01 05:18:00;;;;;;;25.03;20.93;;;-2.10;99.90;;;;;;4917297;29;20457;-71
2023/03/01 05:20:31;;;;;;;31.43;23.63;;;-2.10;99.90;;;;;;4915697;29;20548;-70
2023/03/01 05:23:04;;;;;;;33.07;25.43;;;-2.10;99.90;;;;;;4916752;29;20500;-71
2023/03/01 05:25:34;;;;;;;37.70;25.77;;;-2.10;99.90;;;;;;4917313;29;20432;-71
2023/03/01 05:28:04;;;;;;;37.17;28.17;;;-2.10;99.90;;;;;;4924430;29;20437;-70
2023/03/01 05:30:33;;;;;;;35.83;26.10;;;-2.10;99.90;;;;;;4926603;29;20428;-69
2023/03/01 05:33:02;;;;;;;34.57;29.03;;;-2.10;99.90;;;;;;4926217;29;20523;-69
2023/03/01 05:35:33;;;;;;;38.13;30.63;;;-2.10;99.90;;;;;;4922615;29;20962;-70
2023/03/01 05:38:02;;;;;;;58.23;39.60;;;-2.20;99.90;;;;;;4925103;29;20432;-70
2023/03/01 05:40:30;;;;;;;54.60;38.80;;;-2.10;99.90;;;;;;4924793;29;20505;-70
2023/03/01 05:42:58;;;;;;;64.10;42.33;;;-2.20;99.90;;;;;;4922705;29;20466;-70
2023/03/01 05:45:27;;;;;;;76.30;46.40;;;-2.20;99.90;;;;;;4922079;29;20455;-70
2023/03/01 05:47:56;;;;;;;66.50;43.57;;;-2.20;99.90;;;;;;4920108;29;20463;-70
2023/03/01 05:50:26;;;;;;;72.43;43.87;;;-2.20;99.90;;;;;;4919987;29;20452;-70
2023/03/01 05:53:00;;;;;;;69.77;44.27;;;-2.20;99.90;;;;;;4921050;29;20539;-70
2023/03/01 05:55:29;;;;;;;62.03;42.63;;;-2.20;99.90;;;;;;4920511;29;20428;-70
2023/03/01 05:58:00;;;;;;;51.50;36.97;;;-2.20;99.90;;;;;;4920307;29;20452;-70
2023/03/01 06:00:29;;;;;;;45.33;31.23;;;-2.20;99.90;;;;;;4920595;29;20425;-70
2023/03/01 06:02:59;;;;;;;49.90;32.43;;;-2.20;99.90;;;;;;4920121;29;20463;-70
2023/03/01 06:05:27;;;;;;;45.60;32.90;;;-2.20;99.90;;;;;;4920119;29;20934;-70
2023/03/01 06:08:00;;;;;;;41.93;29.00;;;-2.20;99.90;;;;;;4919911;29;20444;-70
2023/03/01 06:10:29;;;;;;;34.97;26.40;;;-2.20;99.90;;;;;;4918636;29;20454;-70
2023/03/01 06:12:57;;;;;;;27.77;23.03;;;-2.30;99.90;;;;;;4919607;29;20559;-70
2023/03/01 06:15:26;;;;;;;29.07;22.47;;;-2.30;99.90;;;;;;4918386;29;20860;-70
2023/03/01 06:17:56;;;;;;;27.90;22.30;;;-2.30;99.90;;;;;;4919458;29;20467;-70
2023/03/01 06:20:29;;;;;;;31.47;25.37;;;-2.30;99.90;;;;;;4919613;29;20770;-70
2023/03/01 06:22:59;;;;;;;26.20;21.60;;;-2.30;99.90;;;;;;4918158;29;20472;-70
2023/03/01 06:25:28;;;;;;;27.40;21.40;;;-2.30;99.90;;;;;;4920061;29;20519;-70
2023/03/01 06:27:56;;;;;;;27.20;21.80;;;-2.30;99.90;;;;;;4918143;29;20459;-70
2023/03/01 06:30:26;;;;;;;29.20;23.40;;;-2.30;99.90;;;;;;4918125;29;20452;-70
2023/03/01 06:33:01;;;;;;;27.93;23.83;;;-2.30;99.90;;;;;;4919361;29;20899;-70
2023/03/01 06:35:30;;;;;;;34.60;21.50;;;-2.30;99.90;;;;;;4919456;29;20427;-70
2023/03/01 06:38:01;;;;;;;27.90;20.90;;;-2.30;99.90;;;;;;4919153;29;20447;-70
2023/03/01 06:40:30;;;;;;;27.10;19.50;;;-2.30;99.90;;;;;;4919869;29;20429;-70
2023/03/01 06:42:59;;;;;;;27.20;20.80;;;-2.30;99.90;;;;;;4918257;29;20460;-70
2023/03/01 06:45:27;;;;;;;28.40;21.50;;;-2.30;99.90;;;;;;4917839;29;20456;-70
2023/03/01 06:48:03;;;;;;;28.67;21.77;;;-2.20;99.90;;;;;;4917779;29;20954;-70
2023/03/01 06:50:31;;;;;;;24.83;20.37;;;-2.20;99.90;;;;;;4917750;29;20447;-70
2023/03/01 06:53:01;;;;;;;26.97;22.13;;;-2.20;99.90;;;;;;4918791;29;20472;-70
2023/03/01 06:55:29;;;;;;;24.30;20.30;;;-2.20;99.90;;;;;;4919220;29;20451;-70
2023/03/01 06:57:58;;;;;;;25.20;21.50;;;-2.20;99.90;;;;;;4919266;29;20827;-70
2023/03/01 07:00:27;;;;;;;24.37;20.67;;;-2.20;99.90;;;;;;4918769;29;20440;-70
2023/03/01 07:02:55;;;;;;;26.27;21.03;;;-2.10;99.90;;;;;;4918974;29;20456;-70
2023/03/01 07:05:23;;;;;;;23.50;20.87;;;-2.10;99.90;;;;;;4917490;29;20444;-70
2023/03/01 07:07:51;;;;;;;24.37;19.87;;;-2.10;99.90;;;;;;4917375;29;20445;-70
2023/03/01 07:10:21;;;;;;;22.50;19.67;;;-2.10;99.90;;;;;;4918814;29;20539;-70
2023/03/01 07:12:49;;;;;;;22.20;18.63;;;-2.10;99.90;;;;;;4917103;29;21008;-70
2023/03/01 07:15:17;;;;;;;24.30;19.57;;;-2.00;99.90;;;;;;4917206;29;20452;-70
2023/03/01 07:17:47;;;;;;;21.97;19.57;;;-2.00;99.90;;;;;;4918319;29;20456;-70
2023/03/01 07:20:16;;;;;;;21.07;18.87;;;-1.90;99.90;;;;;;4918583;29;20930;-70
2023/03/01 07:22:44;;;;;;;22.77;19.17;;;-1.90;99.90;;;;;;4918209;29;20491;-70
2023/03/01 07:25:12;;;;;;;21.73;19.00;;;-1.80;99.90;;;;;;4918282;29;20475;-71
2023/03/01 07:27:41;;;;;;;24.50;18.50;;;-1.80;99.90;;;;;;4918136;29;20440;-70
2023/03/01 07:30:11;;;;;;;22.47;20.27;;;-1.80;99.90;;;;;;4918099;29;20432;-71
2023/03/01 07:32:39;;;;;;;19.77;17.67;;;-1.70;99.90;;;;;;4917874;29;20463;-71
2023/03/01 07:35:08;;;;;;;19.70;17.40;;;-1.60;99.90;;;;;;4918013;29;20446;-71
2023/03/01 07:37:36;;;;;;;21.40;16.70;;;-1.60;99.90;;;;;;4918197;29;20444;-71
2023/03/01 07:40:05;;;;;;;18.10;16.20;;;-1.50;99.90;;;;;;4916674;29;21115;-70
2023/03/01 07:42:33;;;;;;;21.67;18.40;;;-1.40;99.90;;;;;;4918085;29;20464;-71
2023/03/01 07:45:03;;;;;;;27.93;22.30;;;-1.40;99.90;;;;;;4917829;29;20853;-70
2023/03/01 07:47:32;;;;;;;25.77;21.83;;;-1.40;99.90;;;;;;4916798;29;20456;-72
2023/03/01 07:50:00;;;;;;;27.30;24.50;;;-1.30;99.90;;;;;;4917753;29;20448;-71
2023/03/01 07:52:29;;;;;;;28.20;23.93;;;-1.30;99.90;;;;;;4917674;29;20464;-73
2023/03/01 07:54:57;;;;;;;26.00;23.10;;;-1.30;99.90;;;;;;4918369;29;20871;-71
2023/03/01 07:57:25;;;;;;;25.77;23.20;;;-1.20;99.90;;;;;;4917629;29;21045;-72
2023/03/01 07:59:53;;;;;;;27.07;24.30;;;-1.20;99.90;;;;;;4916358;29;20456;-71
2023/03/01 08:02:23;;;;;;;32.80;28.33;;;-1.10;99.90;;;;;;4917510;29;20988;-71
2023/03/01 08:04:51;;;;;;;30.67;27.37;;;-1.10;99.90;;;;;;4917561;29;20444;-72
2023/03/01 08:07:19;;;;;;;29.83;26.63;;;-1.00;99.90;;;;;;4917770;29;20440;-71
2023/03/01 08:09:47;;;;;;;28.37;25.30;;;-1.00;99.90;;;;;;4917502;29;20567;-71
2023/03/01 08:12:16;;;;;;;30.00;26.90;;;-0.90;99.90;;;;;;4916161;29;20836;-72
2023/03/01 08:14:44;;;;;;;29.30;26.13;;;-0.80;99.90;;;;;;4917248;29;20511;-72
2023/03/01 08:17:15;;;;;;;27.67;24.83;;;-0.80;99.90;;;;;;4917282;29;20457;-72
2023/03/01 08:19:45;;;;;;;27.60;23.17;;;-0.70;99.90;;;;;;4917340;29;20495;-72
2023/03/01 08:22:13;;;;;;;27.40;24.53;;;-0.60;99.90;;;;;;4917574;29;20460;-71
2023/03/01 08:24:42;;;;;;;28.23;25.40;;;-0.50;99.90;;;;;;4917831;29;20444;-72
2023/03/01 08:27:11;;;;;;;29.10;24.90;;;-0.40;99.90;;;;;;4917236;29;20447;-71
2023/03/01 08:29:40;;;;;;;27.07;23.50;;;-0.20;99.90;;;;;;4917183;29;20447;-71
2023/03/01 08:32:08;;;;;;;26.43;23.73;;;-0.10;99.90;;;;;;4915841;29;20508;-72
2023/03/01 08:34:37;;;;;;;27.33;24.70;;;0.00;99.90;;;;;;4917610;29;21122;-71
2023/03/01 08:37:07;;;;;;;26.30;22.43;;;0.20;99.90;;;;;;4917107;29;20436;-72
2023/03/01 08:39:35;;;;;;;30.90;24.50;;;0.30;99.90;;;;;;4917129;29;20444;-72
2023/03/01 08:42:04;;;;;;;25.73;23.03;;;0.30;99.90;;;;;;4917027;29;20879;-72
2023/03/01 08:44:33;;;;;;;26.43;23.90;;;0.40;99.90;;;;;;4917568;29;20436;-72
2023/03/01 08:47:02;;;;;;;23.97;21.50;;;0.50;99.90;;;;;;4915805;29;20456;-72
2023/03/01 08:49:30;;;;;;;24.97;22.37;;;0.50;99.90;;;;;;4915772;29;20493;-72
2023/03/01 08:51:58;;;;;;;23.37;20.73;;;0.60;99.90;;;;;;4916965;29;20467;-72
2023/03/01 08:54:27;;;;;;;23.13;20.83;;;0.70;99.90;;;;;;4916263;29;20484;-72
2023/03/01 08:56:55;;;;;;;24.80;21.50;;;0.80;99.90;;;;;;4918114;29;20440;-72
2023/03/01 08:59:23;;;;;;;22.50;20.40;;;0.90;99.90;;;;;;4917837;29;20445;-73
2023/03/01 09:01:52;;;;;;;24.07;20.57;;;0.90;99.90;;;;;;4917005;29;20500;-72
2023/03/01 09:04:20;;;;;;;21.67;19.37;;;1.10;99.90;;;;;;4915851;29;20453;-73
2023/03/01 09:06:48;;;;;;;23.80;21.50;;;1.20;99.90;;;;;;4920748;29;20472;-73
2023/03/01 09:09:18;;;;;;;19.30;17.30;;;1.30;99.90;;;;;;4921011;29;20440;-73
2023/03/01 09:11:49;;;;;;;21.90;19.90;;;1.30;99.90;;;;;;4920603;29;20456;-72
2023/03/01 09:14:18;;;;;;;20.83;18.73;;;1.40;99.90;;;;;;4919284;29;20465;-72
2023/03/01 09:16:46;;;;;;;21.77;19.50;;;1.50;99.90;;;;;;4919150;29;20447;-73
2023/03/01 09:19:14;;;;;;;20.43;18.30;;;1.50;99.90;;;;;;4919280;29;20456;-73
2023/03/01 09:21:52;;;;;;;20.60;18.60;;;1.60;99.90;;;;;;4919162;29;20472;-73
2023/03/01 09:24:22;;;;;;;18.80;17.00;;;1.70;99.90;;;;;;4920848;29;20421;-73
2023/03/01 09:26:54;;;;;;;18.73;16.60;;;1.80;99.90;;;;;;4920347;29;20780;-72
2023/03/01 09:29:23;;;;;;;17.47;14.87;;;1.80;99.90;;;;;;4919054;29;21017;-73
2023/03/01 09:31:51;;;;;;;15.43;13.87;;;1.90;99.90;;;;;;4920184;29;20465;-71
2023/03/01 09:34:22;;;;;;;15.57;14.00;;;2.00;99.90;;;;;;4918942;29;20476;-73
2023/03/01 09:36:51;;;;;;;15.80;14.20;;;2.10;99.90;;;;;;4920426;29;20442;-74
2023/03/01 09:39:20;;;;;;;15.87;14.30;;;2.20;99.90;;;;;;4920413;29;20449;-73
2023/03/01 09:41:56;;;;;;;15.07;13.57;;;2.30;99.90;;;;;;4919996;29;20464;-74
2023/03/01 09:44:35;;;;;;;15.10;13.70;;;2.30;99.90;;;;;;4920064;29;20519;-73
2023/03/01 09:47:03;;;;;;;14.63;13.20;;;2.40;99.90;;;;;;4920321;29;20441;-74
2023/03/01 09:49:34;;;;;;;15.60;14.10;;;2.50;99.90;;;;;;4920470;29;20445;-71
2023/03/01 09:52:14;;;;;;;13.87;12.47;;;2.60;99.90;;;;;;4924073;29;20463;-73
2023/03/01 09:54:42;;;;;;;14.57;13.17;;;2.70;99.90;;;;;;4923646;29;20554;-73
2023/03/01 09:57:20;;;;;;;15.10;13.60;;;2.80;99.90;;;;;;4925932;29;20448;-73
2023/03/01 10:00:05;;;;;;;13.90;10.83;;;2.90;99.90;;;;;;4924935;29;20425;-72
2023/03/01 10:02:42;;;;;;;14.30;12.47;;;3.00;99.90;;;;;;4924821;29;20555;-73
2023/03/01 10:05:37;;;;;;;13.50;10.80;;;3.10;99.90;;;;;;4924652;29;20921;-73
2023/03/01 10:08:30;;;;;;;11.87;10.70;;;3.20;99.90;;;;;;4919612;29;20435;-73
2023/03/01 10:10:59;;;;;;;11.87;10.77;;;3.30;99.90;;;;;;4918459;29;20452;-73
2023/03/01 10:13:42;;;;;;;8.63;6.93;;;3.40;99.90;;;;;;4918349;29;20485;-72
2023/03/01 10:16:16;;;;;;;12.13;10.50;;;3.50;99.90;;;;;;4918703;29;20471;-73
2023/03/01 10:18:56;;;;;;;12.70;10.80;;;3.60;99.90;;;;;;4920918;29;20448;-73
2023/03/01 10:21:25;;;;;;;10.40;8.63;;;3.70;99.90;;;;;;4920769;29;20431;-72
2023/03/01 10:23:54;;;;;;;14.00;8.20;;;3.80;99.90;;;;;;4918676;29;20449;-73
2023/03/01 10:26:36;;;;;;;9.87;8.00;;;3.80;99.90;;;;;;4919672;29;20447;-72
2023/03/01 10:29:08;;;;;;;9.33;8.37;;;3.90;99.90;;;;;;4919900;29;20421;-73
2023/03/01 10:31:42;;;;;;;9.80;8.80;;;4.00;99.90;;;;;;4919963;29;20432;-73
2023/03/01 10:34:13;;;;;;;12.80;10.03;;;4.10;99.90;;;;;;4919862;29;20417;-73
2023/03/01 10:36:43;;;;;;;10.03;8.97;;;4.10;99.90;;;;;;4919668;29;20485;-73
2023/03/01 10:39:15;;;;;;;9.57;8.60;;;4.20;99.90;;;;;;4919090;29;20448;-73
2023/03/01 10:41:56;;;;;;;10.57;8.60;;;4.30;99.90;;;;;;4919275;29;20474;-72
2023/03/01 10:44:47;;;;;;;10.13;9.13;;;4.40;99.90;;;;;;4917830;29;20504;-72
2023/03/01 10:47:21;;;;;;;9.40;8.50;;;4.40;99.90;;;;;;4918955;29;20558;-72
2023/03/01 10:49:58;;;;;;;12.10;8.53;;;4.50;99.90;;;;;;4919213;29;20432;-72
2023/03/01 10:52:30;;;;;;;11.10;8.70;;;4.50;99.90;;;;;;4919209;29;20481;-73
2023/03/01 10:55:00;;;;;;;13.60;10.67;;;4.50;99.90;;;;;;4919006;29;21048;-73
2023/03/01 10:57:37;;;;;;;12.60;10.83;;;4.60;99.90;;;;;;4919115;29;20460;-72
2023/03/01 11:00:24;;;;;;;13.57;11.37;;;4.70;99.90;;;;;;4917482;29;20448;-72
2023/03/01 11:03:11;;;;;;;14.53;12.43;;;4.70;99.90;;;;;;4917932;29;20469;-72
2023/03/01 11:05:55;;;;;;;15.93;13.97;;;4.80;99.90;;;;;;4918775;29;20420;-72
2023/03/01 11:08:48;;;;;;;16.00;14.40;;;4.80;99.90;;;;;;4918864;29;20425;-73
2023/03/01 11:11:24;;;;;;;15.70;14.30;;;4.90;99.90;;;;;;4909105;29;20843;-73
2023/03/01 11:13:58;;;;;;;18.67;16.87;;;5.00;99.90;;;;;;4918479;29;20977;-74
2023/03/01 11:16:31;;;;;;;16.30;14.90;;;5.00;99.90;;;;;;4917119;29;20846;-73
2023/03/01 11:19:05;;;;;;;18.93;17.13;;;5.10;99.90;;;;;;4917107;29;20869;-74
2023/03/01 11:21:35;;;;;;;18.57;16.87;;;5.20;99.90;;;;;;4918338;29;20855;-74
2023/03/01 11:24:06;;;;;;;16.50;15.13;;;5.30;99.90;;;;;;4918516;29;20435;-73
2023/03/01 11:26:39;;;;;;;16.80;15.30;;;5.40;99.90;;;;;;4916976;29;20436;-73
2023/03/01 11:29:17;;;;;;;17.80;16.10;;;5.40;99.90;;;;;;4916928;29;20967;-73
2023/03/01 11:31:48;;;;;;;18.00;16.33;;;5.50;99.90;;;;;;4916859;29;20478;-73
2023/03/01 11:34:37;;;;;;;17.87;16.30;;;5.50;99.90;;;;;;4918141;29;20421;-74
2023/03/01 11:37:17;;;;;;;18.43;16.80;;;5.60;99.90;;;;;;4918273;29;20555;-74
2023/03/01 11:39:52;;;;;;;18.80;17.23;;;5.60;99.90;;;;;;4916777;29;20803;-74
2023/03/01 11:42:26;;;;;;;17.07;15.43;;;5.70;99.90;;;;;;4916726;29;20483;-74
2023/03/01 11:44:59;;;;;;;18.40;16.80;;;5.70;99.90;;;;;;4918440;29;20849;-73
2023/03/01 11:47:44;;;;;;;18.40;16.70;;;5.70;99.90;;;;;;4918199;29;20421;-74
2023/03/01 11:50:21;;;;;;;17.07;15.57;;;5.80;99.90;;;;;;4918168;29;20457;-74
2023/03/01 11:53:10;;;;;;;16.70;15.20;;;5.80;99.90;;;;;;4917760;29;20536;-73
2023/03/01 11:55:56;;;;;;;17.40;15.63;;;5.90;99.90;;;;;;4917756;29;20492;-73
2023/03/01 11:58:39;;;;;;;19.23;17.43;;;5.90;99.90;;;;;;4916667;29;20925;-73
2023/03/01 12:01:21;;;;;;;18.00;16.30;;;6.00;99.90;;;;;;4916568;29;20467;-73
2023/03/01 12:04:15;;;;;;;16.63;15.13;;;6.00;99.90;;;;;;4918400;29;20437;-73
2023/03/01 12:06:56;;;;;;;17.60;16.00;;;6.10;99.90;;;;;;4918077;29;20449;-73
2023/03/01 12:09:50;;;;;;;16.90;15.50;;;6.10;99.90;;;;;;4916298;29;20882;-73
2023/03/01 12:12:43;;;;;;;18.20;16.40;;;6.20;99.90;;;;;;4915781;29;20491;-74
2023/03/01 12:15:52;;;;;;;17.50;16.00;;;6.20;99.90;;;;;;4916116;29;20543;-73
2023/03/01 12:18:38;;;;;;;20.50;18.60;;;6.20;99.90;;;;;;4917320;29;20487;-73
2023/03/01 12:21:20;;;;;;;17.87;16.37;;;6.20;99.90;;;;;;4917876;29;20421;-73
2023/03/01 12:24:16;;;;;;;17.40;15.90;;;6.30;99.90;;;;;;4917351;29;20903;-74
2023/03/01 12:26:54;;;;;;;19.70;17.93;;;6.30;99.90;;;;;;4917233;29;20441;-74
2023/03/01 12:29:30;;;;;;;19.60;18.00;;;6.30;99.90;;;;;;4917361;29;20441;-73
2023/03/01 12:32:26;;;;;;;20.73;18.93;;;6.40;99.90;;;;;;4915988;29;20468;-73
2023/03/01 12:35:13;;;;;;;20.07;18.37;;;6.50;99.90;;;;;;4917541;29;20417;-74
2023/03/01 12:37:53;;;;;;;19.10;17.40;;;6.50;99.90;;;;;;4917138;29;20424;-74
2023/03/01 12:40:34;;;;;;;19.27;17.57;;;6.50;99.90;;;;;;4916516;29;20454;-74
2023/03/01 12:43:16;;;;;;;19.97;18.20;;;6.50;99.90;;;;;;4917201;29;20468;-74
2023/03/01 12:45:55;;;;;;;19.67;17.87;;;6.60;99.90;;;;;;4917109;29;20425;-74
2023/03/01 12:48:41;;;;;;;19.57;17.87;;;6.60;99.90;;;;;;4915862;29;20452;-74
2023/03/01 12:51:14;;;;;;;19.50;17.80;;;6.60;99.90;;;;;;4917809;29;20425;-73
2023/03/01 12:53:48;;;;;;;19.33;17.73;;;6.60;99.90;;;;;;4915769;29;20474;-74
2023/03/01 12:56:22;;;;;;;19.97;18.30;;;6.60;99.90;;;;;;4916976;29;20469;-73
2023/03/01 12:58:59;;;;;;;19.30;17.60;;;6.60;99.90;;;;;;4915726;29;20456;-73